This is the latest recevied weather packets stored in our database for station/object KB9GXK. If no packets are shown the sender has not sent any weather packets the latest 10 day(s).
| Time | Temp. | Humidity | Pressure | Rain* | Wind** | Luminosity | Snow |
|---|---|---|---|---|---|---|---|
| 1778186089 | 10.56° C | 63% | 1010.9 hPa | 0 mm | - | 355 W/m² | - |
| 1778185482 | 9.44° C | 65% | 1011.4 hPa | 0 mm | - | 536 W/m² | - |
| 1778185178 | 9.44° C | 67% | 1011.5 hPa | 0 mm | - | 595 W/m² | - |
| 1778184873 | 9.44° C | 71% | 1011.6 hPa | 0 mm | - | 578 W/m² | - |
| 1778184570 | 8.89° C | 69% | 1011.6 hPa | 0 mm | - | 604 W/m² | - |
| 1778184266 | 8.33° C | 73% | 1011.6 hPa | 1.78 mm | - | 443 W/m² | - |
| 1778183962 | 7.78° C | 76% | 1012.1 hPa | 1.78 mm | - | 541 W/m² | - |
| 1778183660 | 7.22° C | 72% | 1012.3 hPa | 0 mm | - | 121 W/m² | - |
| 1778183357 | 7.78° C | 67% | 1012.7 hPa | 0 mm | - | 26 W/m² | - |
| 1778182749 | 8.33° C | 64% | 1012.2 hPa | 0 mm | - | 42 W/m² | - |
| 1778182447 | 8.89° C | 61% | 1012.4 hPa | 0 mm | - | 60 W/m² | - |
| 1778182143 | 9.44° C | 60% | 1012.4 hPa | 0 mm | - | 132 W/m² | - |
| 1778181536 | 10.56° C | 54% | 1012.6 hPa | 0 mm | - | 300 W/m² | - |
| 1778181232 | 10.56° C | 53% | 1012.4 hPa | 0 mm | - | 274 W/m² | - |
| 1778180929 | 11.11° C | 52% | 1012.6 hPa | 0 mm | - | 263 W/m² | - |
| 1778180627 | 11.67° C | 50% | 1012.3 hPa | 0 mm | - | 505 W/m² | - |
| 1778180326 | 11.11° C | 53% | 1012.5 hPa | 0 mm | - | 702 W/m² | - |
| 1778180022 | 11.11° C | 52% | 1012.3 hPa | 0 mm | - | 689 W/m² | - |
| 1778179113 | 10° C | 51% | 1012.7 hPa | 0 mm | - | 361 W/m² | - |
| 1778178811 | 10° C | 51% | 1012.8 hPa | 0 mm | - | 397 W/m² | - |
| 1778178508 | 9.44° C | 53% | 1013 hPa | 0 mm | - | 381 W/m² | - |
| 1778178204 | 8.89° C | 53% | 1013.2 hPa | 0 mm | - | 340 W/m² | - |
| 1778177900 | 8.89° C | 54% | 1013.4 hPa | 0 mm | - | 241 W/m² | - |
| 1778177596 | 8.89° C | 53% | 1013.6 hPa | 0 mm | - | 109 W/m² | - |
| 1778177293 | 8.89° C | 55% | 1013.4 hPa | 0 mm | - | 115 W/m² | - |
* Rain latest hour (hover to see other rain measurements)
** Current wind speed in m/s (hover to see current wind gust speed)